Kezdőlap
METAR-TAF:

METAR-TAF

Repülőterek :

Phenjan, Észak-Korea

Szunani nemzetközi repülőtér

földrajzi szélesség: 39-02N, földrajzi hosszúság: 125-47E, magasság: 36 m

METAR: hiányzik

Idő: 22:00 (13:30 UTC)

Előrejelzés

A jelentés 9 órával és 50 perccel ezelõtt készült, 03:40 UTC
Az előrejelzés 25-én 06 óra UTC és 26-én 06 óra UTC között érvényes
Észak-északnyugati szél 6 kt
Látótávolság 10 km, vagy több
felhőtlen 1500 m magasságban, és nincs gomolyfelhõ
25-én 18 óra UTC és 26-én 01 óra UTC között ideiglenes
Látótávolság: 2000 m
Párásság

TAF: ZKPY 250340Z 2506/2606 33003MPS CAVOK TX04/2507Z TNM06/22Z TEMPO 2518/2601 2000 BR NSC

Meteorológiai megfigyelések és előrejelzések több, mint 4000 repülőtéren (METAR és TAF jelentéseket).

A térképen piros és sárga pontok jelzik az elérhető meteorológiai állomásokat.

Mozgassa az egeret a pont fölött, hogy megjelenjen az állomás neve.

Azután kattintson az időjárási megfigyelések és előrejelzések megtekintéséhez.

A térkép megváltoztatása: kattintson a fekete keresztel jelölt zöld gombra ráközelítéshez, a vonallal jelölt zöld gombra távolításhoz, vagy a zöld nyilakra a szomszédos térképek eléréséhez.


METAR-TAF: